sensor_id;sensor_type;location;lat;lon;timestamp;pressure;altitude;pressure_sealevel;temperature;humidity
75945;BME280;64628;50.104;14.614;2023-11-21T00:00:25;97979.51;;;12.08;41.44
75945;BME280;64628;50.104;14.614;2023-11-21T00:02:51;97980.55;;;12.11;40.92
75945;BME280;64628;50.104;14.614;2023-11-21T00:05:17;97984.17;;;11.98;41.13
75945;BME280;64628;50.104;14.614;2023-11-21T00:07:42;97981.31;;;11.68;41.27
75945;BME280;64628;50.104;14.614;2023-11-21T00:10:08;97977.28;;;12.11;40.94
75945;BME280;64628;50.104;14.614;2023-11-21T00:12:33;97977.44;;;11.81;41.32
75945;BME280;64628;50.104;14.614;2023-11-21T00:14:57;97978.43;;;11.69;41.21
75945;BME280;64628;50.104;14.614;2023-11-21T00:17:22;97982.20;;;12.22;41.09
75945;BME280;64628;50.104;14.614;2023-11-21T00:19:48;97981.86;;;11.91;41.27
75945;BME280;64628;50.104;14.614;2023-11-21T00:22:13;97979.57;;;11.90;41.25
75945;BME280;64628;50.104;14.614;2023-11-21T00:24:39;97980.16;;;12.12;41.25
75945;BME280;64628;50.104;14.614;2023-11-21T00:27:04;97981.52;;;12.12;41.35
75945;BME280;64628;50.104;14.614;2023-11-21T00:29:30;97984.38;;;11.82;41.46
75945;BME280;64628;50.104;14.614;2023-11-21T00:31:55;97982.98;;;12.04;41.09
75945;BME280;64628;50.104;14.614;2023-11-21T00:34:20;97985.27;;;12.42;40.88
75945;BME280;64628;50.104;14.614;2023-11-21T00:36:46;97983.32;;;11.82;41.00
75945;BME280;64628;50.104;14.614;2023-11-21T00:39:11;97983.57;;;12.17;40.81
75945;BME280;64628;50.104;14.614;2023-11-21T00:41:36;97982.93;;;11.85;41.32
75945;BME280;64628;50.104;14.614;2023-11-21T00:44:02;97986.94;;;11.86;41.36
75945;BME280;64628;50.104;14.614;2023-11-21T00:46:27;97987.58;;;12.26;41.15
75945;BME280;64628;50.104;14.614;2023-11-21T00:48:53;97990.76;;;12.15;40.93
75945;BME280;64628;50.104;14.614;2023-11-21T00:51:18;97986.89;;;11.92;41.28
75945;BME280;64628;50.104;14.614;2023-11-21T00:53:43;97986.01;;;11.96;41.27
75945;BME280;64628;50.104;14.614;2023-11-21T00:56:09;97986.02;;;12.00;41.23
75945;BME280;64628;50.104;14.614;2023-11-21T00:58:34;97986.51;;;12.00;41.22
75945;BME280;64628;50.104;14.614;2023-11-21T01:00:59;97984.87;;;11.99;41.62
75945;BME280;64628;50.104;14.614;2023-11-21T01:03:25;97986.92;;;11.78;41.28
75945;BME280;64628;50.104;14.614;2023-11-21T01:05:51;97984.58;;;12.23;41.21
75945;BME280;64628;50.104;14.614;2023-11-21T01:08:16;97986.00;;;11.98;41.21
75945;BME280;64628;50.104;14.614;2023-11-21T01:10:42;97989.33;;;11.70;41.41
75945;BME280;64628;50.104;14.614;2023-11-21T01:13:07;97994.04;;;11.97;41.95
75945;BME280;64628;50.104;14.614;2023-11-21T01:15:33;97992.82;;;11.80;42.56
75945;BME280;64628;50.104;14.614;2023-11-21T01:17:58;97996.25;;;11.48;43.05
75945;BME280;64628;50.104;14.614;2023-11-21T01:20:24;97999.98;;;11.62;43.25
75945;BME280;64628;50.104;14.614;2023-11-21T01:22:50;97997.30;;;11.67;43.36
75945;BME280;64628;50.104;14.614;2023-11-21T01:25:15;97993.56;;;11.53;43.12
75945;BME280;64628;50.104;14.614;2023-11-21T01:27:40;97993.42;;;11.86;43.08
75945;BME280;64628;50.104;14.614;2023-11-21T01:30:07;97996.22;;;11.89;43.15
75945;BME280;64628;50.104;14.614;2023-11-21T01:32:30;97993.65;;;11.47;43.06
75945;BME280;64628;50.104;14.614;2023-11-21T01:34:55;97996.57;;;11.57;43.24
75945;BME280;64628;50.104;14.614;2023-11-21T01:37:21;97997.25;;;11.77;43.49
75945;BME280;64628;50.104;14.614;2023-11-21T01:39:46;97997.44;;;11.56;43.49
75945;BME280;64628;50.104;14.614;2023-11-21T01:42:12;97998.50;;;11.72;43.55
75945;BME280;64628;50.104;14.614;2023-11-21T01:44:38;98001.16;;;11.61;43.77
75945;BME280;64628;50.104;14.614;2023-11-21T01:47:03;98003.95;;;11.41;43.78
75945;BME280;64628;50.104;14.614;2023-11-21T01:49:28;98003.55;;;11.63;43.69
75945;BME280;64628;50.104;14.614;2023-11-21T01:51:53;98004.07;;;11.45;43.54
75945;BME280;64628;50.104;14.614;2023-11-21T01:54:19;98004.00;;;11.36;43.83
75945;BME280;64628;50.104;14.614;2023-11-21T01:56:44;98001.94;;;11.78;43.49
75945;BME280;64628;50.104;14.614;2023-11-21T01:59:10;98006.35;;;11.81;43.42
75945;BME280;64628;50.104;14.614;2023-11-21T02:01:35;98004.95;;;11.63;43.54
75945;BME280;64628;50.104;14.614;2023-11-21T02:04:00;98003.79;;;11.69;43.34
75945;BME280;64628;50.104;14.614;2023-11-21T02:06:26;98001.51;;;11.62;43.02
75945;BME280;64628;50.104;14.614;2023-11-21T02:08:51;98005.59;;;11.84;43.37
75945;BME280;64628;50.104;14.614;2023-11-21T02:11:16;98007.36;;;11.68;44.09
75945;BME280;64628;50.104;14.614;2023-11-21T02:13:41;98009.00;;;11.16;44.63
75945;BME280;64628;50.104;14.614;2023-11-21T02:16:08;98010.22;;;11.40;45.10
75945;BME280;64628;50.104;14.614;2023-11-21T02:18:33;98010.61;;;11.02;45.39
75945;BME280;64628;50.104;14.614;2023-11-21T02:20:58;98010.15;;;11.15;45.08
75945;BME280;64628;50.104;14.614;2023-11-21T02:23:23;98008.93;;;11.08;45.30
75945;BME280;64628;50.104;14.614;2023-11-21T02:25:49;98007.42;;;11.41;45.09
75945;BME280;64628;50.104;14.614;2023-11-21T02:28:14;98006.16;;;11.09;45.34
75945;BME280;64628;50.104;14.614;2023-11-21T02:30:39;98005.64;;;11.06;45.57
75945;BME280;64628;50.104;14.614;2023-11-21T02:33:05;98007.08;;;11.11;46.03
75945;BME280;64628;50.104;14.614;2023-11-21T02:35:31;98006.43;;;10.81;45.64
75945;BME280;64628;50.104;14.614;2023-11-21T02:37:56;98004.52;;;10.93;46.08
75945;BME280;64628;50.104;14.614;2023-11-21T02:40:22;98002.96;;;11.14;46.18
75945;BME280;64628;50.104;14.614;2023-11-21T02:42:48;98000.43;;;11.24;46.07
75945;BME280;64628;50.104;14.614;2023-11-21T02:45:14;98003.56;;;11.03;45.88
75945;BME280;64628;50.104;14.614;2023-11-21T02:47:39;98004.45;;;10.97;45.89
75945;BME280;64628;50.104;14.614;2023-11-21T02:50:05;98006.18;;;10.98;46.07
75945;BME280;64628;50.104;14.614;2023-11-21T02:52:29;98007.14;;;10.68;46.32
75945;BME280;64628;50.104;14.614;2023-11-21T02:54:55;98006.46;;;10.70;46.29
75945;BME280;64628;50.104;14.614;2023-11-21T02:57:20;98005.89;;;10.94;46.08
75945;BME280;64628;50.104;14.614;2023-11-21T02:59:46;98000.68;;;11.09;45.75
75945;BME280;64628;50.104;14.614;2023-11-21T03:02:11;98000.73;;;10.64;46.15
75945;BME280;64628;50.104;14.614;2023-11-21T03:04:37;98000.28;;;10.81;46.29
75945;BME280;64628;50.104;14.614;2023-11-21T03:07:03;97997.52;;;11.02;46.19
75945;BME280;64628;50.104;14.614;2023-11-21T03:09:28;97993.47;;;10.74;46.31
75945;BME280;64628;50.104;14.614;2023-11-21T03:11:54;97995.82;;;10.91;45.89
75945;BME280;64628;50.104;14.614;2023-11-21T03:14:19;97992.11;;;10.85;45.51
75945;BME280;64628;50.104;14.614;2023-11-21T03:16:45;97995.87;;;11.11;45.54
75945;BME280;64628;50.104;14.614;2023-11-21T03:19:10;97997.29;;;11.10;45.49
75945;BME280;64628;50.104;14.614;2023-11-21T03:21:36;97997.46;;;10.61;45.88
75945;BME280;64628;50.104;14.614;2023-11-21T03:24:02;97999.75;;;11.07;45.92
75945;BME280;64628;50.104;14.614;2023-11-21T03:26:28;97999.90;;;10.85;46.01
75945;BME280;64628;50.104;14.614;2023-11-21T03:28:53;98003.48;;;11.15;45.89
75945;BME280;64628;50.104;14.614;2023-11-21T03:31:19;98001.46;;;10.97;45.84
75945;BME280;64628;50.104;14.614;2023-11-21T03:33:45;98003.24;;;11.09;46.05
75945;BME280;64628;50.104;14.614;2023-11-21T03:36:10;98005.00;;;10.85;45.57
75945;BME280;64628;50.104;14.614;2023-11-21T03:38:35;98009.80;;;10.90;45.41
75945;BME280;64628;50.104;14.614;2023-11-21T03:41:00;98009.78;;;11.17;45.35
75945;BME280;64628;50.104;14.614;2023-11-21T03:43:26;98005.54;;;11.25;45.16
75945;BME280;64628;50.104;14.614;2023-11-21T03:45:51;98006.05;;;11.07;45.04
75945;BME280;64628;50.104;14.614;2023-11-21T03:48:17;98011.04;;;11.39;44.96
75945;BME280;64628;50.104;14.614;2023-11-21T03:50:42;98013.22;;;11.20;44.84
75945;BME280;64628;50.104;14.614;2023-11-21T03:53:07;98014.02;;;11.26;44.93
75945;BME280;64628;50.104;14.614;2023-11-21T03:55:33;98015.99;;;11.22;44.96
75945;BME280;64628;50.104;14.614;2023-11-21T03:57:58;98010.66;;;11.10;45.16
75945;BME280;64628;50.104;14.614;2023-11-21T04:00:24;98012.51;;;11.09;45.17
75945;BME280;64628;50.104;14.614;2023-11-21T04:02:49;98014.57;;;10.92;45.08
75945;BME280;64628;50.104;14.614;2023-11-21T04:05:14;98012.30;;;11.17;44.15
75945;BME280;64628;50.104;14.614;2023-11-21T04:07:40;98012.88;;;11.04;43.74
75945;BME280;64628;50.104;14.614;2023-11-21T04:10:08;98018.86;;;11.13;43.72
75945;BME280;64628;50.104;14.614;2023-11-21T04:12:31;98018.31;;;11.32;43.38
75945;BME280;64628;50.104;14.614;2023-11-21T04:14:57;98020.15;;;11.57;43.28
75945;BME280;64628;50.104;14.614;2023-11-21T04:17:23;98022.20;;;11.49;42.99
75945;BME280;64628;50.104;14.614;2023-11-21T04:19:48;98024.22;;;11.44;43.07
75945;BME280;64628;50.104;14.614;2023-11-21T04:22:14;98021.50;;;11.49;42.87
75945;BME280;64628;50.104;14.614;2023-11-21T04:24:39;98025.05;;;11.50;42.92
75945;BME280;64628;50.104;14.614;2023-11-21T04:27:05;98023.67;;;11.65;42.70
75945;BME280;64628;50.104;14.614;2023-11-21T04:29:30;98025.34;;;11.60;42.60
75945;BME280;64628;50.104;14.614;2023-11-21T04:31:56;98028.28;;;11.67;42.61
75945;BME280;64628;50.104;14.614;2023-11-21T04:34:21;98031.17;;;11.69;42.45
75945;BME280;64628;50.104;14.614;2023-11-21T04:36:47;98032.78;;;11.47;42.44
75945;BME280;64628;50.104;14.614;2023-11-21T04:39:12;98035.27;;;11.59;42.25
75945;BME280;64628;50.104;14.614;2023-11-21T04:41:38;98033.46;;;12.05;41.96
75945;BME280;64628;50.104;14.614;2023-11-21T04:44:03;98033.13;;;11.81;41.97
75945;BME280;64628;50.104;14.614;2023-11-21T04:46:28;98036.27;;;11.66;42.11
75945;BME280;64628;50.104;14.614;2023-11-21T04:48:54;98035.07;;;12.08;41.87
75945;BME280;64628;50.104;14.614;2023-11-21T04:51:19;98035.01;;;11.43;42.16
75945;BME280;64628;50.104;14.614;2023-11-21T04:53:44;98033.78;;;11.68;42.04
75945;BME280;64628;50.104;14.614;2023-11-21T04:56:10;98029.80;;;12.09;41.76
75945;BME280;64628;50.104;14.614;2023-11-21T04:58:35;98030.83;;;11.77;41.97
75945;BME280;64628;50.104;14.614;2023-11-21T05:01:00;98030.63;;;11.88;41.79
75945;BME280;64628;50.104;14.614;2023-11-21T05:03:26;98031.02;;;12.21;41.59
75945;BME280;64628;50.104;14.614;2023-11-21T05:05:51;98031.45;;;12.01;41.55
75945;BME280;64628;50.104;14.614;2023-11-21T05:08:16;98035.94;;;12.13;41.60
75945;BME280;64628;50.104;14.614;2023-11-21T05:10:41;98036.98;;;11.94;41.63
75945;BME280;64628;50.104;14.614;2023-11-21T05:13:06;98039.52;;;11.54;41.83
75945;BME280;64628;50.104;14.614;2023-11-21T05:15:32;98039.74;;;12.06;41.77
75945;BME280;64628;50.104;14.614;2023-11-21T05:17:57;98039.62;;;12.03;41.79
75945;BME280;64628;50.104;14.614;2023-11-21T05:20:22;98042.65;;;11.57;41.75
75945;BME280;64628;50.104;14.614;2023-11-21T05:22:48;98043.90;;;11.91;41.91
75945;BME280;64628;50.104;14.614;2023-11-21T05:25:13;98046.28;;;11.78;41.62
75945;BME280;64628;50.104;14.614;2023-11-21T05:27:38;98043.71;;;11.70;41.88
75945;BME280;64628;50.104;14.614;2023-11-21T05:30:05;98048.40;;;11.92;41.86
75945;BME280;64628;50.104;14.614;2023-11-21T05:32:29;98049.28;;;11.99;41.76
75945;BME280;64628;50.104;14.614;2023-11-21T05:34:54;98054.95;;;11.54;41.74
75945;BME280;64628;50.104;14.614;2023-11-21T05:37:19;98054.81;;;12.03;41.80
75945;BME280;64628;50.104;14.614;2023-11-21T05:39:45;98054.52;;;11.81;42.12
75945;BME280;64628;50.104;14.614;2023-11-21T05:42:10;98055.01;;;11.55;42.11
75945;BME280;64628;50.104;14.614;2023-11-21T05:44:36;98055.10;;;11.89;41.99
75945;BME280;64628;50.104;14.614;2023-11-21T05:47:02;98056.80;;;11.99;42.01
75945;BME280;64628;50.104;14.614;2023-11-21T05:49:27;98054.76;;;11.66;41.96
75945;BME280;64628;50.104;14.614;2023-11-21T05:51:53;98057.25;;;11.79;41.82
75945;BME280;64628;50.104;14.614;2023-11-21T05:54:18;98058.21;;;11.79;41.71
75945;BME280;64628;50.104;14.614;2023-11-21T05:56:43;98058.69;;;11.86;41.52
75945;BME280;64628;50.104;14.614;2023-11-21T05:59:08;98062.66;;;11.84;41.49
75945;BME280;64628;50.104;14.614;2023-11-21T06:01:33;98068.06;;;11.68;41.31
75945;BME280;64628;50.104;14.614;2023-11-21T06:03:59;98069.78;;;12.02;41.51
75945;BME280;64628;50.104;14.614;2023-11-21T06:06:24;98070.51;;;11.83;41.34
75945;BME280;64628;50.104;14.614;2023-11-21T06:08:49;98067.32;;;11.42;41.52
75945;BME280;64628;50.104;14.614;2023-11-21T06:11:15;98070.82;;;11.95;41.50
75945;BME280;64628;50.104;14.614;2023-11-21T06:13:41;98072.43;;;11.92;41.46
75945;BME280;64628;50.104;14.614;2023-11-21T06:16:07;98080.02;;;11.57;41.59
75945;BME280;64628;50.104;14.614;2023-11-21T06:18:31;98080.34;;;11.84;41.65
75945;BME280;64628;50.104;14.614;2023-11-21T06:20:57;98078.84;;;11.87;41.50
75945;BME280;64628;50.104;14.614;2023-11-21T06:23:23;98085.12;;;11.66;41.61
75945;BME280;64628;50.104;14.614;2023-11-21T06:25:48;98091.12;;;11.78;41.43
75945;BME280;64628;50.104;14.614;2023-11-21T06:28:14;98094.82;;;11.95;41.48
75945;BME280;64628;50.104;14.614;2023-11-21T06:30:39;98096.32;;;11.98;41.55
75945;BME280;64628;50.104;14.614;2023-11-21T06:33:04;98100.12;;;11.96;41.60
75945;BME280;64628;50.104;14.614;2023-11-21T06:35:30;98106.02;;;12.03;41.39
75945;BME280;64628;50.104;14.614;2023-11-21T06:37:56;98106.69;;;11.80;41.44
75945;BME280;64628;50.104;14.614;2023-11-21T06:40:21;98107.44;;;12.01;41.14
75945;BME280;64628;50.104;14.614;2023-11-21T06:42:47;98107.96;;;12.33;40.96
75945;BME280;64628;50.104;14.614;2023-11-21T06:45:12;98107.27;;;12.10;40.88
75945;BME280;64628;50.104;14.614;2023-11-21T06:47:38;98107.58;;;12.06;40.88
75945;BME280;64628;50.104;14.614;2023-11-21T06:50:05;98108.71;;;12.00;41.05
75945;BME280;64628;50.104;14.614;2023-11-21T06:52:29;98111.01;;;12.16;40.81
75945;BME280;64628;50.104;14.614;2023-11-21T06:54:55;98116.51;;;12.30;40.95
75945;BME280;64628;50.104;14.614;2023-11-21T06:57:22;98114.87;;;11.92;40.86
75945;BME280;64628;50.104;14.614;2023-11-21T06:59:45;98116.41;;;12.12;40.82
75945;BME280;64628;50.104;14.614;2023-11-21T07:02:10;98115.00;;;12.20;40.62
75945;BME280;64628;50.104;14.614;2023-11-21T07:04:36;98113.56;;;12.12;40.63
75945;BME280;64628;50.104;14.614;2023-11-21T07:07:02;98119.13;;;11.93;40.62
75945;BME280;64628;50.104;14.614;2023-11-21T07:09:27;98116.39;;;12.22;40.66
75945;BME280;64628;50.104;14.614;2023-11-21T07:11:52;98117.51;;;12.56;40.47
75945;BME280;64628;50.104;14.614;2023-11-21T07:14:18;98118.58;;;12.43;40.33
75945;BME280;64628;50.104;14.614;2023-11-21T07:16:43;98120.29;;;12.20;40.33
75945;BME280;64628;50.104;14.614;2023-11-21T07:19:09;98119.28;;;12.34;40.28
75945;BME280;64628;50.104;14.614;2023-11-21T07:21:34;98117.61;;;12.94;40.03
75945;BME280;64628;50.104;14.614;2023-11-21T07:24:00;98118.10;;;12.75;39.98
75945;BME280;64628;50.104;14.614;2023-11-21T07:26:25;98120.41;;;12.80;39.93
75945;BME280;64628;50.104;14.614;2023-11-21T07:28:51;98123.05;;;12.85;39.92
75945;BME280;64628;50.104;14.614;2023-11-21T07:31:16;98124.53;;;12.95;39.63
75945;BME280;64628;50.104;14.614;2023-11-21T07:33:42;98125.61;;;12.44;39.78
75945;BME280;64628;50.104;14.614;2023-11-21T07:36:08;98128.96;;;12.81;39.65
75945;BME280;64628;50.104;14.614;2023-11-21T07:38:33;98125.52;;;13.08;39.87
75945;BME280;64628;50.104;14.614;2023-11-21T07:40:58;98128.15;;;12.65;40.16
75945;BME280;64628;50.104;14.614;2023-11-21T07:43:24;98135.89;;;12.68;40.20
75945;BME280;64628;50.104;14.614;2023-11-21T07:45:49;98137.96;;;12.55;40.61
75945;BME280;64628;50.104;14.614;2023-11-21T07:48:14;98139.14;;;12.52;40.66
75945;BME280;64628;50.104;14.614;2023-11-21T07:50:39;98142.18;;;12.55;40.45
75945;BME280;64628;50.104;14.614;2023-11-21T07:53:04;98141.16;;;12.52;40.90
75945;BME280;64628;50.104;14.614;2023-11-21T07:55:30;98141.80;;;12.45;40.82
75945;BME280;64628;50.104;14.614;2023-11-21T07:57:55;98143.66;;;12.39;40.86
75945;BME280;64628;50.104;14.614;2023-11-21T08:00:21;98142.36;;;12.75;40.92
75945;BME280;64628;50.104;14.614;2023-11-21T08:02:46;98138.50;;;12.33;41.29
75945;BME280;64628;50.104;14.614;2023-11-21T08:05:11;98134.54;;;12.24;41.09
75945;BME280;64628;50.104;14.614;2023-11-21T08:07:36;98137.02;;;12.41;40.58
75945;BME280;64628;50.104;14.614;2023-11-21T08:10:02;98137.96;;;12.56;40.66
75945;BME280;64628;50.104;14.614;2023-11-21T08:12:27;98143.71;;;12.58;40.45
75945;BME280;64628;50.104;14.614;2023-11-21T08:14:52;98146.44;;;12.67;40.35
75945;BME280;64628;50.104;14.614;2023-11-21T08:17:18;98151.52;;;12.76;40.27
75945;BME280;64628;50.104;14.614;2023-11-21T08:19:43;98152.38;;;12.93;40.13
75945;BME280;64628;50.104;14.614;2023-11-21T08:22:09;98152.55;;;12.96;40.04
75945;BME280;64628;50.104;14.614;2023-11-21T08:24:34;98151.64;;;13.07;39.68
75945;BME280;64628;50.104;14.614;2023-11-21T08:26:59;98154.65;;;13.07;39.72
75945;BME280;64628;50.104;14.614;2023-11-21T08:29:25;98153.59;;;12.75;39.91
75945;BME280;64628;50.104;14.614;2023-11-21T08:31:50;98151.23;;;12.92;39.74
75945;BME280;64628;50.104;14.614;2023-11-21T08:34:15;98151.35;;;13.02;39.19
75945;BME280;64628;50.104;14.614;2023-11-21T08:36:42;98153.81;;;13.33;38.87
75945;BME280;64628;50.104;14.614;2023-11-21T08:39:05;98153.36;;;13.08;39.16
75945;BME280;64628;50.104;14.614;2023-11-21T08:41:31;98152.81;;;13.14;39.07
75945;BME280;64628;50.104;14.614;2023-11-21T08:43:56;98157.71;;;13.30;39.04
75945;BME280;64628;50.104;14.614;2023-11-21T08:46:21;98160.29;;;13.00;38.95
75945;BME280;64628;50.104;14.614;2023-11-21T08:48:47;98165.09;;;13.27;38.77
75945;BME280;64628;50.104;14.614;2023-11-21T08:51:13;98171.37;;;13.17;38.92
75945;BME280;64628;50.104;14.614;2023-11-21T08:53:38;98171.11;;;13.02;39.07
75945;BME280;64628;50.104;14.614;2023-11-21T08:56:04;98174.26;;;13.25;38.85
75945;BME280;64628;50.104;14.614;2023-11-21T08:58:29;98176.63;;;13.12;38.86
75945;BME280;64628;50.104;14.614;2023-11-21T09:00:54;98176.38;;;13.41;39.00
75945;BME280;64628;50.104;14.614;2023-11-21T09:03:20;98177.79;;;13.58;39.09
75945;BME280;64628;50.104;14.614;2023-11-21T09:05:45;98178.31;;;13.39;38.67
75945;BME280;64628;50.104;14.614;2023-11-21T09:08:10;98179.19;;;13.14;38.20
75945;BME280;64628;50.104;14.614;2023-11-21T09:10:36;98185.29;;;13.40;38.61
75945;BME280;64628;50.104;14.614;2023-11-21T09:13:00;98191.02;;;13.18;37.96
75945;BME280;64628;50.104;14.614;2023-11-21T09:15:27;98194.41;;;13.47;38.33
75945;BME280;64628;50.104;14.614;2023-11-21T09:17:52;98195.04;;;13.46;38.38
75945;BME280;64628;50.104;14.614;2023-11-21T09:20:17;98197.66;;;13.40;38.57
75945;BME280;64628;50.104;14.614;2023-11-21T09:22:42;98197.69;;;13.66;37.75
75945;BME280;64628;50.104;14.614;2023-11-21T09:25:09;98196.88;;;13.51;37.96
75945;BME280;64628;50.104;14.614;2023-11-21T09:27:33;98199.11;;;13.43;37.60
75945;BME280;64628;50.104;14.614;2023-11-21T09:29:58;98200.65;;;13.65;37.39
75945;BME280;64628;50.104;14.614;2023-11-21T09:32:24;98200.35;;;13.48;37.58
75945;BME280;64628;50.104;14.614;2023-11-21T09:34:50;98203.12;;;13.41;37.60
75945;BME280;64628;50.104;14.614;2023-11-21T09:37:15;98204.96;;;13.42;36.93
75945;BME280;64628;50.104;14.614;2023-11-21T09:39:40;98203.63;;;13.48;37.62
75945;BME280;64628;50.104;14.614;2023-11-21T09:42:10;98206.68;;;13.46;38.18
75945;BME280;64628;50.104;14.614;2023-11-21T09:44:35;98203.54;;;13.51;37.96
75945;BME280;64628;50.104;14.614;2023-11-21T09:46:59;98206.20;;;13.64;37.86
75945;BME280;64628;50.104;14.614;2023-11-21T09:51:47;98213.52;;;13.54;37.42
75945;BME280;64628;50.104;14.614;2023-11-21T09:54:14;98215.48;;;13.81;37.14
75945;BME280;64628;50.104;14.614;2023-11-21T09:56:37;98216.17;;;13.88;36.19
75945;BME280;64628;50.104;14.614;2023-11-21T09:59:04;98221.94;;;14.07;35.96
75945;BME280;64628;50.104;14.614;2023-11-21T10:01:29;98216.21;;;14.02;35.66
75945;BME280;64628;50.104;14.614;2023-11-21T10:03:55;98213.14;;;14.11;35.49
75945;BME280;64628;50.104;14.614;2023-11-21T10:06:20;98210.97;;;14.25;35.58
75945;BME280;64628;50.104;14.614;2023-11-21T10:08:46;98213.35;;;14.36;35.19
75945;BME280;64628;50.104;14.614;2023-11-21T10:11:11;98214.90;;;14.16;34.50
75945;BME280;64628;50.104;14.614;2023-11-21T10:13:35;98219.02;;;14.46;34.81
75945;BME280;64628;50.104;14.614;2023-11-21T10:16:01;98216.74;;;14.17;34.90
75945;BME280;64628;50.104;14.614;2023-11-21T10:18:26;98213.27;;;14.43;34.52
75945;BME280;64628;50.104;14.614;2023-11-21T10:20:51;98215.15;;;14.45;34.33
75945;BME280;64628;50.104;14.614;2023-11-21T10:23:17;98214.27;;;14.56;34.25
75945;BME280;64628;50.104;14.614;2023-11-21T10:25:42;98211.07;;;14.39;34.05
75945;BME280;64628;50.104;14.614;2023-11-21T10:28:07;98212.66;;;14.48;34.39
75945;BME280;64628;50.104;14.614;2023-11-21T10:30:33;98213.24;;;14.38;34.21
75945;BME280;64628;50.104;14.614;2023-11-21T10:32:59;98217.87;;;14.37;33.91
75945;BME280;64628;50.104;14.614;2023-11-21T10:35:22;98222.32;;;14.64;33.74
75945;BME280;64628;50.104;14.614;2023-11-21T10:40:13;98218.97;;;14.07;34.50
75945;BME280;64628;50.104;14.614;2023-11-21T10:42:38;98218.10;;;14.44;34.69
75945;BME280;64628;50.104;14.614;2023-11-21T10:45:04;98216.16;;;14.48;34.82
75945;BME280;64628;50.104;14.614;2023-11-21T10:47:28;98217.02;;;14.33;34.20
75945;BME280;64628;50.104;14.614;2023-11-21T10:49:54;98212.22;;;14.50;33.36
75945;BME280;64628;50.104;14.614;2023-11-21T10:52:20;98217.76;;;14.67;33.72
75945;BME280;64628;50.104;14.614;2023-11-21T10:54:46;98215.81;;;14.41;33.44
75945;BME280;64628;50.104;14.614;2023-11-21T10:57:11;98215.95;;;14.39;33.38
75945;BME280;64628;50.104;14.614;2023-11-21T10:59:36;98214.19;;;14.47;33.44
75945;BME280;64628;50.104;14.614;2023-11-21T11:02:04;98208.28;;;14.02;33.08
75945;BME280;64628;50.104;14.614;2023-11-21T11:04:28;98204.99;;;14.57;33.04
75945;BME280;64628;50.104;14.614;2023-11-21T11:06:57;98203.27;;;13.90;33.41
75945;BME280;64628;50.104;14.614;2023-11-21T11:09:18;98203.10;;;14.31;33.32
75945;BME280;64628;50.104;14.614;2023-11-21T11:11:44;98201.12;;;14.23;33.10
75945;BME280;64628;50.104;14.614;2023-11-21T11:14:11;98199.81;;;14.22;33.23
75945;BME280;64628;50.104;14.614;2023-11-21T11:16:36;98202.18;;;14.42;32.84
75945;BME280;64628;50.104;14.614;2023-11-21T11:19:00;98201.08;;;14.30;33.04
75945;BME280;64628;50.104;14.614;2023-11-21T11:21:31;98199.54;;;14.65;32.97
75945;BME280;64628;50.104;14.614;2023-11-21T11:24:04;98197.97;;;14.68;32.74
75945;BME280;64628;50.104;14.614;2023-11-21T11:26:26;98200.39;;;15.19;32.03
75945;BME280;64628;50.104;14.614;2023-11-21T11:28:47;98197.13;;;14.96;31.86
75945;BME280;64628;50.104;14.614;2023-11-21T11:31:14;98196.71;;;15.19;31.56
75945;BME280;64628;50.104;14.614;2023-11-21T11:33:39;98201.06;;;15.49;30.84
75945;BME280;64628;50.104;14.614;2023-11-21T11:36:04;98202.93;;;15.77;30.13
75945;BME280;64628;50.104;14.614;2023-11-21T11:38:27;98199.62;;;15.70;29.69
75945;BME280;64628;50.104;14.614;2023-11-21T11:40:53;98204.15;;;16.02;29.03
75945;BME280;64628;50.104;14.614;2023-11-21T11:43:24;98200.19;;;16.27;28.90
75945;BME280;64628;50.104;14.614;2023-11-21T11:45:41;98198.40;;;16.21;29.34
75945;BME280;64628;50.104;14.614;2023-11-21T11:48:06;98200.81;;;15.66;29.49
75945;BME280;64628;50.104;14.614;2023-11-21T11:50:31;98199.01;;;15.65;29.88
75945;BME280;64628;50.104;14.614;2023-11-21T11:55:23;98205.25;;;15.35;31.14
75945;BME280;64628;50.104;14.614;2023-11-21T11:57:50;98204.56;;;15.24;30.62
75945;BME280;64628;50.104;14.614;2023-11-21T12:00:15;98208.68;;;14.97;31.02
75945;BME280;64628;50.104;14.614;2023-11-21T12:02:39;98206.92;;;14.89;31.46
75945;BME280;64628;50.104;14.614;2023-11-21T12:05:09;98205.97;;;14.96;31.87
75945;BME280;64628;50.104;14.614;2023-11-21T12:07:42;98205.20;;;15.12;31.64
75945;BME280;64628;50.104;14.614;2023-11-21T12:09:56;98203.75;;;14.94;32.17
75945;BME280;64628;50.104;14.614;2023-11-21T12:12:22;98204.09;;;14.88;33.24
75945;BME280;64628;50.104;14.614;2023-11-21T12:14:47;98205.19;;;14.56;33.32
75945;BME280;64628;50.104;14.614;2023-11-21T12:17:12;98209.90;;;14.54;33.40
75945;BME280;64628;50.104;14.614;2023-11-21T12:19:37;98207.02;;;14.61;33.10
75945;BME280;64628;50.104;14.614;2023-11-21T12:22:03;98207.26;;;14.90;33.03
75945;BME280;64628;50.104;14.614;2023-11-21T12:24:27;98204.85;;;14.74;32.86
75945;BME280;64628;50.104;14.614;2023-11-21T12:26:53;98207.71;;;14.76;32.15
75945;BME280;64628;50.104;14.614;2023-11-21T12:29:19;98205.05;;;14.23;32.01
75945;BME280;64628;50.104;14.614;2023-11-21T12:31:45;98208.84;;;14.21;31.98
75945;BME280;64628;50.104;14.614;2023-11-21T12:34:10;98209.81;;;14.78;32.16
75945;BME280;64628;50.104;14.614;2023-11-21T12:36:35;98216.08;;;14.49;32.11
75945;BME280;64628;50.104;14.614;2023-11-21T12:39:01;98217.52;;;14.75;32.24
75945;BME280;64628;50.104;14.614;2023-11-21T12:41:26;98214.17;;;14.33;31.97
75945;BME280;64628;50.104;14.614;2023-11-21T12:43:52;98214.09;;;14.37;32.00
75945;BME280;64628;50.104;14.614;2023-11-21T12:46:17;98216.18;;;14.25;32.06